Time;durP1;ratioP1;P1;durP2;ratioP2;P2;SDS_P1;SDS_P2;PMS_P1;PMS_P2;Temp;Humidity;BMP_temperature;BMP_pressure;BME280_temperature;BME280_humidity;BME280_pressure;Samples;Min_cycle;Max_cycle;Signal;HPM_P1;HPM_P2
2021/11/04 00:00:45;;;;;;;9.10;4.75;;;15.40;99.90;;;;;;5107212;28;20051;-44
2021/11/04 00:03:11;;;;;;;15.60;5.78;;;15.40;99.90;;;;;;5076522;28;20081;-45
2021/11/04 00:05:37;;;;;;;11.13;5.40;;;15.30;99.90;;;;;;5074806;28;20502;-44
2021/11/04 00:08:04;;;;;;;9.02;4.65;;;15.30;99.90;;;;;;5059005;28;20039;-45
2021/11/04 00:10:31;;;;;;;13.88;5.50;;;15.20;99.90;;;;;;5106375;28;20118;-45
2021/11/04 00:12:57;;;;;;;9.88;5.22;;;15.20;99.90;;;;;;5111816;28;20086;-46
2021/11/04 00:15:23;;;;;;;11.00;5.07;;;15.30;99.90;;;;;;5112594;27;20388;-47
2021/11/04 00:17:49;;;;;;;8.63;5.30;;;15.20;99.90;;;;;;5094103;28;20082;-46
2021/11/04 00:20:16;;;;;;;8.13;4.43;;;15.20;99.90;;;;;;5068899;28;20403;-46
2021/11/04 00:22:43;;;;;;;11.10;5.40;;;15.20;99.90;;;;;;5089345;28;20159;-46
2021/11/04 00:25:09;;;;;;;9.90;4.45;;;15.20;99.90;;;;;;5086293;28;20081;-46
2021/11/04 00:27:35;;;;;;;9.20;5.07;;;15.30;99.90;;;;;;5095105;28;20020;-47
2021/11/04 00:30:02;;;;;;;8.27;3.80;;;15.30;99.90;;;;;;5088832;28;20024;-46
2021/11/04 00:32:28;;;;;;;13.75;4.93;;;15.30;99.90;;;;;;5094216;28;20031;-45
2021/11/04 00:34:54;;;;;;;8.75;3.85;;;15.40;99.90;;;;;;5082737;28;20028;-46
2021/11/04 00:37:19;;;;;;;7.55;4.00;;;15.50;99.90;;;;;;5096342;28;20399;-47
2021/11/04 00:39:45;;;;;;;6.78;3.75;;;15.60;99.90;;;;;;5104170;28;20192;-46
2021/11/04 00:42:11;;;;;;;5.53;3.47;;;15.60;99.90;;;;;;5082964;28;20060;-46
2021/11/04 00:44:37;;;;;;;6.47;3.78;;;15.60;99.90;;;;;;5112935;28;20093;-46
2021/11/04 00:47:03;;;;;;;7.70;3.35;;;15.70;99.90;;;;;;5112908;28;20074;-45
2021/11/04 00:49:28;;;;;;;8.23;3.35;;;15.70;99.90;;;;;;5097007;28;20023;-46
2021/11/04 00:51:54;;;;;;;5.07;3.00;;;15.80;99.90;;;;;;5080132;28;20384;-44
2021/11/04 00:54:20;;;;;;;7.47;4.25;;;15.80;99.90;;;;;;5064896;28;20040;-46
2021/11/04 00:56:46;;;;;;;9.35;3.40;;;15.90;99.90;;;;;;5098982;27;20043;-46
2021/11/04 00:59:12;;;;;;;6.85;3.63;;;15.90;99.90;;;;;;5120291;27;20074;-45
2021/11/04 01:01:38;;;;;;;6.85;4.18;;;15.90;99.90;;;;;;5112639;27;20036;-46
2021/11/04 01:04:04;;;;;;;6.38;3.47;;;16.00;99.90;;;;;;5063972;28;20459;-45
2021/11/04 01:06:29;;;;;;;6.90;3.22;;;16.00;99.90;;;;;;5134580;27;20031;-44
2021/11/04 01:08:55;;;;;;;9.38;3.67;;;16.00;99.90;;;;;;5118274;27;20039;-44
2021/11/04 01:11:22;;;;;;;8.35;3.53;;;16.10;99.90;;;;;;5137156;27;20023;-44
2021/11/04 01:13:48;;;;;;;6.88;3.15;;;16.10;99.90;;;;;;5137633;27;20031;-45
2021/11/04 01:16:15;;;;;;;10.85;3.78;;;16.10;99.90;;;;;;5137682;27;20031;-46
2021/11/04 01:18:41;;;;;;;6.20;3.10;;;16.10;99.90;;;;;;5137434;27;20110;-47
2021/11/04 01:21:06;;;;;;;7.25;3.17;;;16.20;99.90;;;;;;5117888;27;20054;-45
2021/11/04 01:23:32;;;;;;;10.20;3.50;;;16.10;99.90;;;;;;5137533;27;20023;-44
2021/11/04 01:25:58;;;;;;;7.70;3.08;;;16.10;99.90;;;;;;5133734;27;20122;-47
2021/11/04 01:28:24;;;;;;;5.07;2.92;;;16.20;99.90;;;;;;5135030;27;20100;-46
2021/11/04 01:30:49;;;;;;;7.88;3.80;;;16.20;99.90;;;;;;5134960;27;20120;-46
2021/11/04 01:33:15;;;;;;;10.30;3.25;;;16.20;99.90;;;;;;5134712;27;20062;-46
2021/11/04 01:35:41;;;;;;;6.05;2.78;;;16.20;99.90;;;;;;5134862;27;20059;-44
2021/11/04 01:38:07;;;;;;;7.93;3.42;;;16.20;99.90;;;;;;5083535;27;20079;-47
2021/11/04 01:40:36;;;;;;;13.05;3.65;;;16.30;99.90;;;;;;5134435;27;20031;-44
2021/11/04 01:43:03;;;;;;;7.70;3.33;;;16.30;99.90;;;;;;5134749;27;20488;-46
2021/11/04 01:45:29;;;;;;;7.15;3.65;;;16.30;99.90;;;;;;5134662;27;20053;-45
2021/11/04 01:47:54;;;;;;;6.05;2.28;;;16.30;99.90;;;;;;5134550;27;20498;-45
2021/11/04 01:50:22;;;;;;;6.88;3.47;;;16.30;99.90;;;;;;5100083;27;20043;-46
2021/11/04 01:52:49;;;;;;;5.50;2.45;;;16.40;99.90;;;;;;5134394;27;20023;-45
2021/11/04 01:55:18;;;;;;;5.30;2.80;;;16.40;99.90;;;;;;5134222;27;20080;-46
2021/11/04 01:57:45;;;;;;;9.65;2.47;;;16.40;99.90;;;;;;5136158;27;20494;-45
2021/11/04 02:00:11;;;;;;;6.55;2.83;;;16.40;99.90;;;;;;5114472;27;20039;-46
2021/11/04 02:02:45;;;;;;;8.65;3.92;;;16.50;99.90;;;;;;5066187;27;20082;-44
2021/11/04 02:05:14;;;;;;;22.52;2.22;;;16.50;99.90;;;;;;5117299;27;20470;-45
2021/11/04 02:08:07;;;;;;;6.18;2.63;;;16.50;99.90;;;;;;5136566;27;20034;-47
2021/11/04 02:10:39;;;;;;;6.38;3.35;;;16.60;99.90;;;;;;5136275;27;20023;-46
2021/11/04 02:13:20;;;;;;;5.85;2.65;;;16.60;99.90;;;;;;5136160;27;20034;-45
2021/11/04 02:15:47;;;;;;;5.60;2.60;;;16.60;99.90;;;;;;5136204;27;20034;-45
2021/11/04 02:18:15;;;;;;;5.40;2.47;;;16.70;99.90;;;;;;5136098;27;20024;-46
2021/11/04 02:21:16;;;;;;;4.93;2.28;;;16.70;99.90;;;;;;5135934;27;20080;-45
2021/11/04 02:23:59;;;;;;;7.40;2.78;;;16.70;99.90;;;;;;5019366;28;20041;-45
2021/11/04 02:26:27;;;;;;;7.07;2.75;;;16.70;99.90;;;;;;5052581;28;20036;-44
2021/11/04 02:28:53;;;;;;;5.93;2.53;;;16.70;99.90;;;;;;5052539;28;20063;-47
2021/11/04 02:31:21;;;;;;;2.60;1.45;;;16.70;99.90;;;;;;5052451;28;20131;-46
2021/11/04 02:33:47;;;;;;;5.57;2.45;;;16.70;99.90;;;;;;5019109;28;20044;-46
2021/11/04 02:36:13;;;;;;;4.40;2.22;;;16.80;99.90;;;;;;5052426;28;20029;-47
2021/11/04 02:38:39;;;;;;;8.63;2.30;;;16.70;99.90;;;;;;5052389;28;20025;-45
2021/11/04 02:41:06;;;;;;;6.50;2.97;;;16.70;99.90;;;;;;5018983;28;20040;-45
2021/11/04 02:43:34;;;;;;;8.40;2.90;;;16.80;99.90;;;;;;5019207;28;20041;-45
2021/11/04 02:46:03;;;;;;;6.35;2.50;;;16.80;99.90;;;;;;5052258;28;20041;-46
2021/11/04 02:48:30;;;;;;;6.40;2.83;;;16.80;99.90;;;;;;5052044;28;20487;-45
2021/11/04 02:50:56;;;;;;;6.80;2.40;;;16.80;99.90;;;;;;5051914;28;20124;-44
2021/11/04 02:53:24;;;;;;;5.07;2.50;;;16.80;99.90;;;;;;5052131;28;20102;-44
2021/11/04 02:55:51;;;;;;;5.43;2.53;;;16.80;99.90;;;;;;5018717;28;20120;-46
2021/11/04 02:58:18;;;;;;;4.13;1.90;;;16.80;99.90;;;;;;5059612;27;20032;-45
2021/11/04 03:00:52;;;;;;;7.68;2.65;;;16.80;99.90;;;;;;5135279;27;20015;-45
2021/11/04 03:03:18;;;;;;;8.68;3.08;;;16.80;99.90;;;;;;5135239;27;20023;-45
2021/11/04 03:05:44;;;;;;;4.15;1.85;;;16.80;99.90;;;;;;5135160;27;20058;-47
2021/11/04 03:08:10;;;;;;;8.02;2.45;;;16.90;99.90;;;;;;5135393;27;20031;-46
2021/11/04 03:10:36;;;;;;;5.32;2.03;;;17.10;99.90;;;;;;5134936;27;20027;-45
2021/11/04 03:13:02;;;;;;;9.02;3.15;;;17.20;99.90;;;;;;5135076;27;20128;-47
2021/11/04 03:15:32;;;;;;;5.10;2.63;;;17.20;99.90;;;;;;5134957;27;20023;-45
2021/11/04 03:18:00;;;;;;;6.28;2.60;;;17.30;99.90;;;;;;5135354;27;20038;-47
2021/11/04 03:20:26;;;;;;;6.80;2.42;;;17.40;99.90;;;;;;5135101;27;20023;-47
2021/11/04 03:22:53;;;;;;;4.13;1.95;;;17.40;99.90;;;;;;5134835;27;20058;-45
2021/11/04 03:25:20;;;;;;;3.70;1.75;;;17.40;99.90;;;;;;5134959;27;20053;-46
2021/11/04 03:27:50;;;;;;;4.22;1.80;;;17.50;99.90;;;;;;5134673;27;20385;-45
2021/11/04 03:30:19;;;;;;;8.35;2.60;;;17.50;99.90;;;;;;5134917;27;20050;-45
2021/11/04 03:32:47;;;;;;;5.93;2.58;;;17.50;99.90;;;;;;5115497;27;20039;-44
2021/11/04 03:35:15;;;;;;;6.85;1.95;;;17.50;99.90;;;;;;5134607;27;20355;-46
2021/11/04 03:37:45;;;;;;;4.10;1.95;;;17.50;99.90;;;;;;5134674;27;20024;-47
2021/11/04 03:40:11;;;;;;;7.80;2.95;;;17.50;99.90;;;;;;5133570;27;20035;-45
2021/11/04 03:42:39;;;;;;;7.93;3.30;;;17.40;99.90;;;;;;5115344;27;20513;-44
2021/11/04 03:45:07;;;;;;;2.83;1.60;;;17.40;99.90;;;;;;5134545;27;20382;-46
2021/11/04 03:47:33;;;;;;;6.03;2.42;;;17.40;99.90;;;;;;5097854;27;20042;-44
2021/11/04 03:50:00;;;;;;;5.50;2.17;;;17.30;99.90;;;;;;5134306;27;20058;-45
2021/11/04 03:52:28;;;;;;;7.40;2.92;;;17.30;99.90;;;;;;5134526;27;20093;-46
2021/11/04 03:54:55;;;;;;;6.13;2.35;;;17.30;99.90;;;;;;5134534;27;20114;-45
2021/11/04 03:57:25;;;;;;;5.03;2.03;;;17.30;99.90;;;;;;5134472;27;20035;-45
2021/11/04 03:59:51;;;;;;;4.80;1.95;;;17.30;99.90;;;;;;5134282;27;20031;-45
2021/11/04 04:02:18;;;;;;;6.72;2.60;;;17.30;99.90;;;;;;5114959;28;20043;-43
2021/11/04 04:04:52;;;;;;;6.25;1.95;;;17.30;99.90;;;;;;5134273;27;20161;-44
2021/11/04 04:07:18;;;;;;;5.35;2.30;;;17.30;99.90;;;;;;5134497;27;20050;-44
2021/11/04 04:09:44;;;;;;;6.22;2.22;;;17.30;99.90;;;;;;5134162;27;20035;-46
2021/11/04 04:12:10;;;;;;;4.82;2.05;;;17.30;99.90;;;;;;5134442;27;20409;-44
2021/11/04 04:14:36;;;;;;;7.18;2.30;;;17.40;99.90;;;;;;5115154;28;20037;-43
2021/11/04 04:17:02;;;;;;;5.35;1.98;;;17.40;99.90;;;;;;5081089;28;20122;-45
2021/11/04 04:19:27;;;;;;;5.95;2.60;;;17.40;99.90;;;;;;5114938;28;20543;-46
2021/11/04 04:21:53;;;;;;;6.88;2.28;;;17.40;99.90;;;;;;5134054;28;20555;-45
2021/11/04 04:24:19;;;;;;;8.15;2.80;;;17.40;99.90;;;;;;5134100;28;20028;-45
2021/11/04 04:26:44;;;;;;;6.75;1.60;;;17.40;99.90;;;;;;5134194;28;20027;-46
2021/11/04 04:29:10;;;;;;;3.70;2.08;;;17.50;99.90;;;;;;5134261;28;20477;-44
2021/11/04 04:31:36;;;;;;;9.32;2.72;;;17.60;99.90;;;;;;5134048;28;20019;-44
2021/11/04 04:34:02;;;;;;;9.27;2.97;;;17.70;99.90;;;;;;5134178;28;20023;-44
2021/11/04 04:36:27;;;;;;;6.25;2.10;;;17.80;99.90;;;;;;5134154;28;20523;-46
2021/11/04 04:38:54;;;;;;;12.55;2.92;;;17.90;99.90;;;;;;5114824;28;20047;-46
2021/11/04 04:41:20;;;;;;;7.82;2.30;;;18.00;99.90;;;;;;5134053;27;20102;-44
2021/11/04 04:43:46;;;;;;;6.60;2.30;;;17.90;99.90;;;;;;5134083;27;20027;-45
2021/11/04 04:46:12;;;;;;;4.90;2.08;;;18.00;99.90;;;;;;5134249;28;20024;-45
2021/11/04 04:48:38;;;;;;;6.65;2.40;;;17.90;99.90;;;;;;5133961;27;20031;-46
2021/11/04 04:51:04;;;;;;;9.15;2.35;;;18.00;99.90;;;;;;5133622;28;20051;-44
2021/11/04 04:53:30;;;;;;;5.90;2.38;;;17.90;99.90;;;;;;5133975;27;20038;-44
2021/11/04 04:55:56;;;;;;;3.72;1.92;;;17.90;99.90;;;;;;5133858;28;20533;-44
2021/11/04 04:58:21;;;;;;;6.63;1.95;;;18.00;99.90;;;;;;5080692;28;20035;-46
2021/11/04 05:00:47;;;;;;;7.40;2.13;;;18.00;99.90;;;;;;5133621;27;20408;-44
2021/11/04 05:03:13;;;;;;;9.77;1.92;;;18.00;99.90;;;;;;5114394;28;20099;-47
2021/11/04 05:05:39;;;;;;;9.07;2.28;;;18.00;99.90;;;;;;5097869;28;20054;-48
2021/11/04 05:08:05;;;;;;;9.80;2.85;;;18.10;99.90;;;;;;5096879;28;20035;-49
2021/11/04 05:10:30;;;;;;;6.13;2.42;;;18.10;99.90;;;;;;5113001;28;20036;-45
2021/11/04 05:12:57;;;;;;;6.97;2.45;;;18.10;99.90;;;;;;5110259;28;20024;-46
2021/11/04 05:15:22;;;;;;;5.15;1.88;;;18.20;99.90;;;;;;5055111;28;20074;-49
2021/11/04 05:17:48;;;;;;;5.90;1.90;;;18.20;99.90;;;;;;5088483;28;20028;-45
2021/11/04 05:20:15;;;;;;;6.03;2.67;;;18.20;99.90;;;;;;5114551;28;20089;-44
2021/11/04 05:22:41;;;;;;;7.18;2.28;;;18.30;99.90;;;;;;5116468;28;20551;-46
2021/11/04 05:25:07;;;;;;;9.23;2.00;;;18.30;99.90;;;;;;5116560;28;20024;-46
2021/11/04 05:27:33;;;;;;;7.40;1.77;;;18.40;99.90;;;;;;5116592;28;20103;-45
2021/11/04 05:29:59;;;;;;;4.32;1.85;;;18.50;99.90;;;;;;5116433;28;20100;-47
2021/11/04 05:32:25;;;;;;;6.25;1.63;;;18.50;99.90;;;;;;5116680;28;20024;-44
2021/11/04 05:34:52;;;;;;;7.65;2.22;;;18.60;99.90;;;;;;5116486;27;20055;-46
2021/11/04 05:37:18;;;;;;;5.25;1.55;;;18.50;99.90;;;;;;5113120;28;20042;-47
2021/11/04 05:39:43;;;;;;;6.57;2.20;;;18.60;99.90;;;;;;5090164;28;20028;-45
2021/11/04 05:42:09;;;;;;;8.40;2.40;;;18.60;99.90;;;;;;5087828;28;20043;-45
2021/11/04 05:44:36;;;;;;;5.20;2.25;;;18.60;99.90;;;;;;5058761;28;20027;-46
2021/11/04 05:47:05;;;;;;;8.32;2.13;;;18.60;99.90;;;;;;5096477;28;20036;-45
2021/11/04 05:49:31;;;;;;;6.50;1.88;;;18.60;99.90;;;;;;5095160;28;20356;-44
2021/11/04 05:51:57;;;;;;;7.38;2.00;;;18.60;99.90;;;;;;5111445;27;20505;-46
2021/11/04 05:54:23;;;;;;;7.97;3.58;;;18.60;99.90;;;;;;5105781;28;20031;-44
2021/11/04 05:56:50;;;;;;;8.73;2.40;;;18.60;99.90;;;;;;5108995;28;20067;-46
2021/11/04 05:59:16;;;;;;;15.10;2.25;;;18.70;99.90;;;;;;5107590;28;20034;-44
2021/11/04 06:01:42;;;;;;;7.95;2.38;;;18.70;99.90;;;;;;5094161;28;20051;-43
2021/11/04 06:04:07;;;;;;;10.05;2.67;;;18.70;99.90;;;;;;5115712;28;20030;-44
2021/11/04 06:06:33;;;;;;;7.90;2.65;;;18.70;99.90;;;;;;5113404;28;20028;-45
2021/11/04 06:08:59;;;;;;;9.70;2.55;;;18.70;99.90;;;;;;5109203;28;20051;-46
2021/11/04 06:11:25;;;;;;;9.75;2.30;;;18.80;99.90;;;;;;5112362;28;20020;-46
2021/11/04 06:13:50;;;;;;;7.88;2.45;;;18.90;99.90;;;;;;5093955;28;20031;-46
2021/11/04 06:16:16;;;;;;;9.88;2.80;;;19.10;99.90;;;;;;5107431;28;20108;-44
2021/11/04 06:18:44;;;;;;;9.50;2.28;;;19.20;99.90;;;;;;5057133;28;20032;-45
2021/11/04 06:21:13;;;;;;;11.02;3.60;;;19.20;99.90;;;;;;5106650;28;20536;-44
2021/11/04 06:23:39;;;;;;;21.05;10.00;;;19.10;99.90;;;;;;5103404;28;20028;-45
2021/11/04 06:26:05;;;;;;;17.85;7.47;;;19.00;99.90;;;;;;5107164;28;20054;-45
2021/11/04 06:28:31;;;;;;;15.90;4.25;;;18.90;99.90;;;;;;5105230;28;20468;-45
2021/11/04 06:30:56;;;;;;;12.35;3.38;;;18.90;99.90;;;;;;5105427;28;20103;-45
2021/11/04 06:33:22;;;;;;;12.27;3.58;;;18.90;99.90;;;;;;5102396;28;20081;-46
2021/11/04 06:35:48;;;;;;;9.18;2.88;;;18.90;99.90;;;;;;5107977;28;20157;-45
2021/11/04 06:38:14;;;;;;;6.65;2.53;;;18.90;99.90;;;;;;5110630;28;20028;-46
2021/11/04 06:40:40;;;;;;;12.90;2.58;;;18.90;99.90;;;;;;5104586;28;20016;-45
2021/11/04 06:43:05;;;;;;;11.20;2.47;;;18.90;99.90;;;;;;5086044;28;20039;-47
2021/11/04 06:45:35;;;;;;;11.10;2.60;;;19.00;99.90;;;;;;5084055;28;20039;-45
2021/11/04 06:48:02;;;;;;;10.88;2.53;;;19.20;99.90;;;;;;5105514;28;20134;-46
2021/11/04 06:50:32;;;;;;;6.30;2.08;;;19.50;99.90;;;;;;5110656;28;20419;-47
2021/11/04 06:53:05;;;;;;;7.20;1.95;;;19.70;99.90;;;;;;5114532;28;20055;-47
2021/11/04 06:55:34;;;;;;;9.13;2.20;;;20.20;99.90;;;;;;5104934;28;20039;-46
2021/11/04 06:58:01;;;;;;;6.22;2.28;;;20.70;99.90;;;;;;5071796;28;20067;-46
2021/11/04 07:00:33;;;;;;;4.50;1.90;;;21.10;99.90;;;;;;5090216;28;20059;-47
2021/11/04 07:03:07;;;;;;;6.90;2.08;;;21.90;99.90;;;;;;5087969;28;20040;-46
2021/11/04 07:05:33;;;;;;;6.05;2.50;;;22.20;99.90;;;;;;5057184;28;20028;-45
2021/11/04 07:08:02;;;;;;;6.25;2.80;;;22.70;99.90;;;;;;5089174;28;20039;-47
2021/11/04 07:10:29;;;;;;;4.45;2.28;;;22.90;99.90;;;;;;5087635;28;20024;-46
2021/11/04 07:12:55;;;;;;;6.47;2.35;;;23.20;99.90;;;;;;5056513;28;20066;-45
2021/11/04 07:15:22;;;;;;;6.20;2.17;;;23.30;99.90;;;;;;5085501;28;20024;-47
2021/11/04 07:17:48;;;;;;;4.28;2.13;;;23.30;99.90;;;;;;5087673;28;20041;-45
2021/11/04 07:20:18;;;;;;;5.90;3.35;;;;;;;;;;5038869;28;20032;-46
2021/11/04 07:22:51;;;;;;;4.63;2.60;;;23.50;99.90;;;;;;5054999;28;20082;-47
2021/11/04 07:25:20;;;;;;;9.00;3.50;;;23.60;99.90;;;;;;5085398;28;20028;-46
2021/11/04 07:28:12;;;;;;;15.77;4.45;;;23.80;99.90;;;;;;5089933;28;20028;-46
2021/11/04 07:30:39;;;;;;;3.80;3.45;;;23.80;99.90;;;;;;5112372;28;20352;-47
2021/11/04 07:33:06;;;;;;;5.68;2.53;;;23.70;99.90;;;;;;5113549;28;20038;-46
2021/11/04 07:35:33;;;;;;;5.18;2.65;;;24.10;99.90;;;;;;5113450;28;20463;-46
2021/11/04 07:38:00;;;;;;;9.50;3.17;;;24.50;99.30;;;;;;5111638;28;20036;-46
2021/11/04 07:40:29;;;;;;;12.38;3.33;;;24.80;99.00;;;;;;5113611;28;20410;-47
2021/11/04 07:42:56;;;;;;;14.43;4.00;;;25.10;98.30;;;;;;5085765;28;20040;-47
2021/11/04 07:45:23;;;;;;;6.10;4.35;;;25.50;98.40;;;;;;5113521;28;20024;-45
2021/11/04 07:47:49;;;;;;;7.18;3.55;;;25.40;97.60;;;;;;5113273;28;20417;-47
2021/11/04 07:50:21;;;;;;;7.18;3.95;;;25.80;97.30;;;;;;5112921;28;20100;-46
2021/11/04 07:52:47;;;;;;;14.93;9.80;;;25.80;97.00;;;;;;5111703;28;20924;-46
2021/11/04 07:55:15;;;;;;;7.25;3.85;;;25.60;96.70;;;;;;5094344;28;20044;-47
2021/11/04 07:57:41;;;;;;;10.63;3.60;;;25.50;96.40;;;;;;5083342;28;20077;-47
2021/11/04 08:00:15;;;;;;;9.40;3.88;;;25.90;96.20;;;;;;5112727;28;20035;-46
2021/11/04 08:02:41;;;;;;;14.95;4.85;;;26.70;95.70;;;;;;5112794;28;20551;-46
2021/11/04 08:05:09;;;;;;;12.68;3.97;;;26.30;95.50;;;;;;5112811;28;20107;-46
2021/11/04 08:07:36;;;;;;;20.90;7.38;;;26.90;95.20;;;;;;5113107;28;20069;-46
2021/11/04 08:10:08;;;;;;;8.73;5.82;;;26.70;95.00;;;;;;5113233;28;20106;-47
2021/11/04 08:12:34;;;;;;;13.32;4.70;;;26.50;94.30;;;;;;5111636;28;20030;-47
2021/11/04 08:15:01;;;;;;;6.45;3.97;;;27.30;94.10;;;;;;5113195;28;20027;-45
2021/11/04 08:17:27;;;;;;;7.47;4.18;;;27.40;93.00;;;;;;5083471;28;20032;-46
2021/11/04 08:19:53;;;;;;;9.07;4.50;;;27.70;92.60;;;;;;5093249;28;20035;-46
2021/11/04 08:22:20;;;;;;;9.40;3.88;;;28.00;92.40;;;;;;5112894;28;20035;-47
2021/11/04 08:24:47;;;;;;;13.23;3.63;;;28.30;92.40;;;;;;5112865;28;20031;-47
2021/11/04 08:27:14;;;;;;;7.97;3.22;;;27.40;92.30;;;;;;5083758;28;20047;-46
2021/11/04 08:29:40;;;;;;;7.60;3.58;;;27.00;92.30;;;;;;5112902;28;20019;-45
2021/11/04 08:32:08;;;;;;;7.88;3.72;;;27.10;92.30;;;;;;5060113;28;20039;-47
2021/11/04 08:34:34;;;;;;;9.55;3.80;;;27.40;92.40;;;;;;5078935;28;20069;-48
2021/11/04 08:37:00;;;;;;;13.88;3.70;;;27.60;91.90;;;;;;5116746;28;20470;-48
2021/11/04 08:39:26;;;;;;;14.52;3.05;;;27.70;91.70;;;;;;5116744;28;20439;-45
2021/11/04 08:41:52;;;;;;;6.80;2.83;;;27.80;91.60;;;;;;5116308;28;20115;-47
2021/11/04 08:44:18;;;;;;;12.70;3.97;;;27.10;92.00;;;;;;5116557;28;20153;-47
2021/11/04 08:46:44;;;;;;;15.85;5.38;;;27.10;92.10;;;;;;5116599;28;20074;-48
2021/11/04 08:49:09;;;;;;;10.57;3.88;;;27.30;92.00;;;;;;5116648;28;20485;-46
2021/11/04 08:51:35;;;;;;;12.82;4.72;;;27.50;91.40;;;;;;5116307;28;20051;-45
2021/11/04 08:54:01;;;;;;;14.88;6.13;;;27.50;91.50;;;;;;5088883;28;20126;-46
2021/11/04 08:56:27;;;;;;;17.42;4.97;;;27.50;90.90;;;;;;5103689;28;20487;-47
2021/11/04 08:58:53;;;;;;;10.55;5.25;;;27.70;91.20;;;;;;5116322;28;20032;-45
2021/11/04 09:01:20;;;;;;;10.48;5.80;;;28.00;90.70;;;;;;5115738;28;20081;-45
2021/11/04 09:03:45;;;;;;;10.35;6.07;;;28.20;90.70;;;;;;5061864;28;20123;-47
2021/11/04 09:06:11;;;;;;;12.88;3.70;;;28.70;90.60;;;;;;5052873;28;20178;-45
2021/11/04 09:08:37;;;;;;;11.57;5.90;;;28.80;89.90;;;;;;5116091;28;20581;-47
2021/11/04 09:11:03;;;;;;;10.90;4.60;;;29.10;89.70;;;;;;5116095;28;20060;-46
2021/11/04 09:13:28;;;;;;;8.80;5.00;;;28.50;89.30;;;;;;5116097;28;20514;-46
2021/11/04 09:15:54;;;;;;;8.70;3.85;;;28.70;88.80;;;;;;5116079;28;20061;-46
2021/11/04 09:18:20;;;;;;;12.40;4.00;;;27.90;89.40;;;;;;5115940;28;20031;-46
2021/11/04 09:20:47;;;;;;;12.57;6.32;;;27.70;90.40;;;;;;5115775;28;20032;-45
2021/11/04 09:23:13;;;;;;;6.78;3.17;;;27.80;90.50;;;;;;5114060;28;20020;-46
2021/11/04 09:25:39;;;;;;;13.40;4.65;;;27.20;90.50;;;;;;5007561;28;20090;-46
2021/11/04 09:28:05;;;;;;;11.88;4.30;;;27.20;91.30;;;;;;5082284;28;20090;-46
2021/11/04 09:30:31;;;;;;;8.70;4.03;;;27.30;91.30;;;;;;5049269;28;20039;-46
2021/11/04 09:32:57;;;;;;;10.40;3.22;;;26.90;89.80;;;;;;5082552;28;20063;-46
2021/11/04 09:35:24;;;;;;;6.43;2.65;;;27.70;90.40;;;;;;5082497;28;20166;-47
2021/11/04 09:37:51;;;;;;;7.60;3.08;;;27.50;90.50;;;;;;5082469;28;20046;-47
2021/11/04 09:40:18;;;;;;;7.72;1.83;;;27.10;90.40;;;;;;5082604;28;20127;-47
2021/11/04 09:42:45;;;;;;;12.00;3.03;;;26.50;90.40;;;;;;5082726;28;20478;-47
2021/11/04 09:45:12;;;;;;;9.02;4.18;;;;;;;;;;5074130;28;20110;-47
2021/11/04 09:47:38;;;;;;;13.00;4.60;;;25.60;91.20;;;;;;5082327;28;20055;-45
2021/11/04 09:50:11;;;;;;;21.90;4.38;;;25.90;92.30;;;;;;5082547;28;20044;-47
2021/11/04 09:52:38;;;;;;;4.93;1.50;;;25.90;91.90;;;;;;5033538;28;20548;-48
2021/11/04 09:55:18;;;;;;;8.68;3.85;;;25.80;91.40;;;;;;5041980;28;20056;-47
2021/11/04 09:57:46;;;;;;;7.68;3.80;;;25.90;91.70;;;;;;5082267;28;20484;-48
2021/11/04 10:00:13;;;;;;;11.95;7.20;;;26.40;92.10;;;;;;5079564;28;20032;-47
2021/11/04 10:02:41;;;;;;;12.30;6.70;;;27.40;91.90;;;;;;5081870;28;20499;-47
2021/11/04 10:05:09;;;;;;;8.75;4.30;;;28.20;91.70;;;;;;5081680;28;20043;-46
2021/11/04 10:07:49;;;;;;;5.20;3.15;;;28.70;90.00;;;;;;5021484;28;20046;-47
2021/11/04 10:10:18;;;;;;;9.23;2.88;;;28.30;90.30;;;;;;5022274;28;20489;-46
2021/11/04 10:13:03;;;;;;;8.93;2.42;;;27.40;90.80;;;;;;5023870;28;20044;-46
2021/11/04 10:15:31;;;;;;;12.25;3.15;;;26.70;90.80;;;;;;5021978;28;20481;-46
2021/11/04 10:18:13;;;;;;;8.50;4.13;;;26.50;94.40;;;;;;5020629;28;20064;-46
2021/11/04 10:20:39;;;;;;;11.73;4.95;;;26.60;91.70;;;;;;5022519;28;20026;-46
2021/11/04 10:23:08;;;;;;;13.40;3.50;;;27.20;91.60;;;;;;5032549;28;20538;-45
2021/11/04 10:25:33;;;;;;;10.40;3.63;;;27.00;91.40;;;;;;5035971;28;20064;-46
2021/11/04 10:28:00;;;;;;;7.80;2.65;;;27.10;91.20;;;;;;5061809;28;20079;-46
2021/11/04 10:30:52;;;;;;;8.98;5.07;;;27.00;91.10;;;;;;5062152;28;20035;-45
2021/11/04 10:33:21;;;;;;;12.18;5.50;;;27.30;91.40;;;;;;5057418;28;20040;-45
2021/11/04 10:36:10;;;;;;;10.23;3.88;;;28.20;91.10;;;;;;5044456;28;20126;-45
2021/11/04 10:38:45;;;;;;;11.63;4.70;;;28.70;90.60;;;;;;5088139;28;20035;-46
2021/11/04 10:41:30;;;;;;;11.50;4.10;;;28.80;90.70;;;;;;5114157;28;20039;-47
2021/11/04 10:44:02;;;;;;;11.90;5.72;;;28.50;90.00;;;;;;5114029;28;20034;-45
2021/11/04 10:46:30;;;;;;;10.25;4.63;;;28.70;90.40;;;;;;5112591;28;20023;-47
2021/11/04 10:49:04;;;;;;;12.00;4.13;;;29.60;89.90;;;;;;5114128;27;20506;-46
2021/11/04 10:51:30;;;;;;;16.17;6.40;;;29.60;88.20;;;;;;5112358;28;20032;-46
2021/11/04 10:54:08;;;;;;;10.75;3.35;;;29.60;88.80;;;;;;5086778;28;20089;-47
2021/11/04 10:56:39;;;;;;;9.13;3.50;;;29.10;86.20;;;;;;5112519;28;20027;-47
2021/11/04 10:59:08;;;;;;;9.47;8.57;;;29.00;82.10;;;;;;5102584;28;20133;-47
2021/11/04 11:01:53;;;;;;;9.30;5.60;;;29.30;82.20;;;;;;5113991;28;20063;-47
2021/11/04 11:04:22;;;;;;;11.23;2.72;;;30.20;82.20;;;;;;5093619;28;20085;-46
2021/11/04 11:06:51;;;;;;;12.50;3.15;;;30.40;80.20;;;;;;5113962;28;20027;-45
2021/11/04 11:09:22;;;;;;;8.23;3.28;;;30.10;80.60;;;;;;5113802;28;20020;-45
2021/11/04 11:11:50;;;;;;;7.22;2.55;;;30.70;79.10;;;;;;5112556;28;20023;-45
2021/11/04 11:14:17;;;;;;;9.90;3.00;;;30.60;77.60;;;;;;5085081;28;20024;-47
2021/11/04 11:16:47;;;;;;;14.02;2.65;;;30.80;78.10;;;;;;5111881;28;20482;-46
2021/11/04 11:19:22;;;;;;;6.63;2.05;;;30.50;79.50;;;;;;5084221;28;20108;-46
2021/11/04 11:21:51;;;;;;;9.73;2.33;;;30.20;77.80;;;;;;5112430;28;20489;-46
2021/11/04 11:24:21;;;;;;;7.03;2.75;;;30.20;78.40;;;;;;5113526;28;20227;-47
2021/11/04 11:26:47;;;;;;;7.55;2.38;;;30.20;77.80;;;;;;5112134;28;20024;-45
2021/11/04 11:29:15;;;;;;;9.73;2.60;;;30.30;77.00;;;;;;5111311;28;20028;-47
2021/11/04 11:31:56;;;;;;;10.48;2.90;;;30.50;77.60;;;;;;5113223;28;20038;-46
2021/11/04 11:34:29;;;;;;;8.52;3.70;;;30.40;76.30;;;;;;5111513;28;20023;-47
2021/11/04 11:37:10;;;;;;;13.30;3.30;;;30.10;76.30;;;;;;5109579;28;20118;-46
2021/11/04 11:40:09;;;;;;;7.32;1.85;;;29.70;76.30;;;;;;5110580;28;20028;-46
2021/11/04 11:42:35;;;;;;;10.35;1.95;;;29.20;87.50;;;;;;5109319;28;20440;-47
2021/11/04 11:45:11;;;;;;;8.30;2.45;;;28.90;86.70;;;;;;5110021;28;20052;-46
2021/11/04 11:47:42;;;;;;;7.70;2.00;;;28.60;78.70;;;;;;5108995;28;20543;-46
2021/11/04 11:50:27;;;;;;;6.68;1.67;;;28.50;92.70;;;;;;5109736;28;20052;-47
2021/11/04 11:53:05;;;;;;;8.18;2.15;;;28.20;78.00;;;;;;5112491;28;20036;-47
2021/11/04 11:55:38;;;;;;;7.95;1.92;;;28.00;79.40;;;;;;5111611;28;20031;-46
2021/11/04 11:58:16;;;;;;;9.27;1.60;;;27.80;80.30;;;;;;5110849;28;20038;-48
2021/11/04 12:01:00;;;;;;;13.00;2.08;;;27.60;79.00;;;;;;5112962;28;20024;-46
2021/11/04 12:03:51;;;;;;;13.38;3.83;;;27.40;79.30;;;;;;5085531;28;20040;-46
2021/11/04 12:06:20;;;;;;;12.68;3.75;;;27.30;80.90;;;;;;5030373;28;20033;-46
2021/11/04 12:08:50;;;;;;;11.05;2.40;;;;;;;;;;5028457;28;20034;-46
2021/11/04 12:11:34;;;;;;;8.23;2.20;;;27.00;79.10;;;;;;5029258;28;20512;-46
2021/11/04 12:14:33;;;;;;;15.13;2.83;;;26.80;80.10;;;;;;5032986;28;20022;-47
2021/11/04 12:17:01;;;;;;;10.30;2.55;;;26.70;81.60;;;;;;4972901;28;20039;-46
2021/11/04 12:19:40;;;;;;;12.57;2.75;;;26.50;81.40;;;;;;4975300;28;20062;-47
2021/11/04 12:22:18;;;;;;;10.43;2.88;;;26.40;81.90;;;;;;4974358;28;20046;-46
2021/11/04 12:24:52;;;;;;;10.20;3.03;;;26.20;82.10;;;;;;4973528;28;20097;-47
2021/11/04 12:27:21;;;;;;;19.23;2.78;;;26.10;82.90;;;;;;4973878;28;20035;-47
2021/11/04 12:29:50;;;;;;;12.32;4.18;;;26.00;83.70;;;;;;4975112;28;20639;-46
2021/11/04 12:32:19;;;;;;;14.25;4.82;;;25.80;84.90;;;;;;4973474;28;20042;-46
2021/11/04 12:34:55;;;;;;;11.88;2.95;;;25.70;85.60;;;;;;4967476;28;20038;-47
2021/11/04 12:37:27;;;;;;;13.32;3.70;;;25.70;84.80;;;;;;4936387;29;20039;-45
2021/11/04 12:39:52;;;;;;;15.38;4.57;;;25.30;91.50;;;;;;4936502;29;20134;-47
2021/11/04 12:42:19;;;;;;;14.18;3.75;;;;;;;;;;4940422;28;20134;-46
2021/11/04 12:44:47;;;;;;;8.40;3.70;;;24.70;94.30;;;;;;4974969;28;20053;-46
2021/11/04 12:47:17;;;;;;;13.48;5.85;;;24.30;96.20;;;;;;4974639;28;20503;-46
2021/11/04 12:49:43;;;;;;;14.85;4.88;;;24.10;97.20;;;;;;4972688;28;20034;-47
2021/11/04 12:52:11;;;;;;;14.05;4.13;;;24.00;96.80;;;;;;4989484;28;20041;-46